sensor_id;sensor_type;location;lat;lon;timestamp;P1;durP1;ratioP1;P2;durP2;ratioP2
72493;SDS011;60520;49.182;-0.348;2022-09-02T00:02:13;3.10;;;2.13;;
72493;SDS011;60520;49.182;-0.348;2022-09-02T00:04:41;2.65;;;2.10;;
72493;SDS011;60520;49.182;-0.348;2022-09-02T00:07:09;4.20;;;2.30;;
72493;SDS011;60520;49.182;-0.348;2022-09-02T00:09:37;3.70;;;2.20;;
72493;SDS011;60520;49.182;-0.348;2022-09-02T00:12:05;2.83;;;2.50;;
72493;SDS011;60520;49.182;-0.348;2022-09-02T00:14:33;2.75;;;2.38;;
72493;SDS011;60520;49.182;-0.348;2022-09-02T00:17:01;3.17;;;2.28;;
72493;SDS011;60520;49.182;-0.348;2022-09-02T00:19:29;2.38;;;2.08;;
72493;SDS011;60520;49.182;-0.348;2022-09-02T00:21:56;2.90;;;2.47;;
72493;SDS011;60520;49.182;-0.348;2022-09-02T00:24:24;3.20;;;2.10;;
72493;SDS011;60520;49.182;-0.348;2022-09-02T00:26:52;4.18;;;2.17;;
72493;SDS011;60520;49.182;-0.348;2022-09-02T00:29:19;2.75;;;2.20;;
72493;SDS011;60520;49.182;-0.348;2022-09-02T00:31:46;3.28;;;2.45;;
72493;SDS011;60520;49.182;-0.348;2022-09-02T00:34:13;3.15;;;2.30;;
72493;SDS011;60520;49.182;-0.348;2022-09-02T00:36:41;3.72;;;2.28;;
72493;SDS011;60520;49.182;-0.348;2022-09-02T00:39:08;2.38;;;2.17;;
72493;SDS011;60520;49.182;-0.348;2022-09-02T00:41:37;2.90;;;2.10;;
72493;SDS011;60520;49.182;-0.348;2022-09-02T00:44:06;3.58;;;2.50;;
72493;SDS011;60520;49.182;-0.348;2022-09-02T00:46:34;4.00;;;2.42;;
72493;SDS011;60520;49.182;-0.348;2022-09-02T00:49:03;4.00;;;2.20;;
72493;SDS011;60520;49.182;-0.348;2022-09-02T00:51:33;3.58;;;2.20;;
72493;SDS011;60520;49.182;-0.348;2022-09-02T00:54:02;3.67;;;2.17;;
72493;SDS011;60520;49.182;-0.348;2022-09-02T00:56:30;3.38;;;2.20;;
72493;SDS011;60520;49.182;-0.348;2022-09-02T00:58:58;2.53;;;2.20;;
72493;SDS011;60520;49.182;-0.348;2022-09-02T01:01:27;2.55;;;2.10;;
72493;SDS011;60520;49.182;-0.348;2022-09-02T01:03:54;2.72;;;2.33;;
72493;SDS011;60520;49.182;-0.348;2022-09-02T01:06:22;3.15;;;2.40;;
72493;SDS011;60520;49.182;-0.348;2022-09-02T01:08:51;2.70;;;2.00;;
72493;SDS011;60520;49.182;-0.348;2022-09-02T01:11:21;2.70;;;2.28;;
72493;SDS011;60520;49.182;-0.348;2022-09-02T01:13:48;2.60;;;2.38;;
72493;SDS011;60520;49.182;-0.348;2022-09-02T01:16:16;3.15;;;2.20;;
72493;SDS011;60520;49.182;-0.348;2022-09-02T01:18:46;2.80;;;2.15;;
72493;SDS011;60520;49.182;-0.348;2022-09-02T01:21:15;2.70;;;2.35;;
72493;SDS011;60520;49.182;-0.348;2022-09-02T01:23:44;2.22;;;2.00;;
72493;SDS011;60520;49.182;-0.348;2022-09-02T01:26:11;2.67;;;2.20;;
72493;SDS011;60520;49.182;-0.348;2022-09-02T01:28:38;3.67;;;2.30;;
72493;SDS011;60520;49.182;-0.348;2022-09-02T01:31:06;3.38;;;2.35;;
72493;SDS011;60520;49.182;-0.348;2022-09-02T01:33:33;2.55;;;2.30;;
72493;SDS011;60520;49.182;-0.348;2022-09-02T01:36:00;2.42;;;1.88;;
72493;SDS011;60520;49.182;-0.348;2022-09-02T01:38:29;4.07;;;2.40;;
72493;SDS011;60520;49.182;-0.348;2022-09-02T01:40:57;2.10;;;1.85;;
72493;SDS011;60520;49.182;-0.348;2022-09-02T01:43:25;3.53;;;2.08;;
72493;SDS011;60520;49.182;-0.348;2022-09-02T01:45:54;2.30;;;1.90;;
72493;SDS011;60520;49.182;-0.348;2022-09-02T01:48:21;3.42;;;2.22;;
72493;SDS011;60520;49.182;-0.348;2022-09-02T01:50:50;3.00;;;2.25;;
72493;SDS011;60520;49.182;-0.348;2022-09-02T01:53:17;2.83;;;2.35;;
72493;SDS011;60520;49.182;-0.348;2022-09-02T01:55:44;2.47;;;2.28;;
72493;SDS011;60520;49.182;-0.348;2022-09-02T01:58:13;3.10;;;2.30;;
72493;SDS011;60520;49.182;-0.348;2022-09-02T02:00:40;2.33;;;1.98;;
72493;SDS011;60520;49.182;-0.348;2022-09-02T02:03:08;3.00;;;2.30;;
72493;SDS011;60520;49.182;-0.348;2022-09-02T02:05:35;2.33;;;2.13;;
72493;SDS011;60520;49.182;-0.348;2022-09-02T02:08:03;2.53;;;2.17;;
72493;SDS011;60520;49.182;-0.348;2022-09-02T02:10:30;2.95;;;2.05;;
72493;SDS011;60520;49.182;-0.348;2022-09-02T02:12:58;2.72;;;2.30;;
72493;SDS011;60520;49.182;-0.348;2022-09-02T02:15:27;2.55;;;2.08;;
72493;SDS011;60520;49.182;-0.348;2022-09-02T02:17:54;2.97;;;2.10;;
72493;SDS011;60520;49.182;-0.348;2022-09-02T02:20:21;2.55;;;2.00;;
72493;SDS011;60520;49.182;-0.348;2022-09-02T02:22:48;2.55;;;2.03;;
72493;SDS011;60520;49.182;-0.348;2022-09-02T02:25:16;2.30;;;2.03;;
72493;SDS011;60520;49.182;-0.348;2022-09-02T02:27:43;2.60;;;2.33;;
72493;SDS011;60520;49.182;-0.348;2022-09-02T02:30:12;2.67;;;2.22;;
72493;SDS011;60520;49.182;-0.348;2022-09-02T02:32:41;3.53;;;2.30;;
72493;SDS011;60520;49.182;-0.348;2022-09-02T02:35:09;3.25;;;2.22;;
72493;SDS011;60520;49.182;-0.348;2022-09-02T02:37:36;2.72;;;2.08;;
72493;SDS011;60520;49.182;-0.348;2022-09-02T02:40:04;2.67;;;2.10;;
72493;SDS011;60520;49.182;-0.348;2022-09-02T02:42:31;2.88;;;2.40;;
72493;SDS011;60520;49.182;-0.348;2022-09-02T02:44:59;3.15;;;2.55;;
72493;SDS011;60520;49.182;-0.348;2022-09-02T02:47:26;3.00;;;1.98;;
72493;SDS011;60520;49.182;-0.348;2022-09-02T02:49:55;3.35;;;2.10;;
72493;SDS011;60520;49.182;-0.348;2022-09-02T02:52:22;2.70;;;2.20;;
72493;SDS011;60520;49.182;-0.348;2022-09-02T02:54:49;2.58;;;2.25;;
72493;SDS011;60520;49.182;-0.348;2022-09-02T02:57:16;2.47;;;2.05;;
72493;SDS011;60520;49.182;-0.348;2022-09-02T02:59:43;2.53;;;2.08;;
72493;SDS011;60520;49.182;-0.348;2022-09-02T03:02:10;3.47;;;2.28;;
72493;SDS011;60520;49.182;-0.348;2022-09-02T03:04:38;3.17;;;2.08;;
72493;SDS011;60520;49.182;-0.348;2022-09-02T03:07:06;2.95;;;2.33;;
72493;SDS011;60520;49.182;-0.348;2022-09-02T03:09:33;2.15;;;1.88;;
72493;SDS011;60520;49.182;-0.348;2022-09-02T03:12:01;2.20;;;2.00;;
72493;SDS011;60520;49.182;-0.348;2022-09-02T03:14:28;2.70;;;2.20;;
72493;SDS011;60520;49.182;-0.348;2022-09-02T03:16:56;2.25;;;2.00;;
72493;SDS011;60520;49.182;-0.348;2022-09-02T03:19:23;3.03;;;2.25;;
72493;SDS011;60520;49.182;-0.348;2022-09-02T03:21:51;3.35;;;2.40;;
72493;SDS011;60520;49.182;-0.348;2022-09-02T03:24:20;3.15;;;2.15;;
72493;SDS011;60520;49.182;-0.348;2022-09-02T03:26:47;2.53;;;2.10;;
72493;SDS011;60520;49.182;-0.348;2022-09-02T03:29:14;3.13;;;2.00;;
72493;SDS011;60520;49.182;-0.348;2022-09-02T03:31:41;2.22;;;2.03;;
72493;SDS011;60520;49.182;-0.348;2022-09-02T03:34:08;2.67;;;2.20;;
72493;SDS011;60520;49.182;-0.348;2022-09-02T03:36:37;2.33;;;2.08;;
72493;SDS011;60520;49.182;-0.348;2022-09-02T03:39:04;2.50;;;2.08;;
72493;SDS011;60520;49.182;-0.348;2022-09-02T03:41:33;2.30;;;2.00;;
72493;SDS011;60520;49.182;-0.348;2022-09-02T03:44:00;2.83;;;2.10;;
72493;SDS011;60520;49.182;-0.348;2022-09-02T03:46:27;2.47;;;1.90;;
72493;SDS011;60520;49.182;-0.348;2022-09-02T03:48:55;2.53;;;1.88;;
72493;SDS011;60520;49.182;-0.348;2022-09-02T03:51:22;2.50;;;2.08;;
72493;SDS011;60520;49.182;-0.348;2022-09-02T03:53:49;2.40;;;2.05;;
72493;SDS011;60520;49.182;-0.348;2022-09-02T03:56:17;3.35;;;2.00;;
72493;SDS011;60520;49.182;-0.348;2022-09-02T03:58:46;2.15;;;1.95;;
72493;SDS011;60520;49.182;-0.348;2022-09-02T04:01:14;2.60;;;2.28;;
72493;SDS011;60520;49.182;-0.348;2022-09-02T04:03:42;2.20;;;2.00;;
72493;SDS011;60520;49.182;-0.348;2022-09-02T04:06:10;3.22;;;2.25;;
72493;SDS011;60520;49.182;-0.348;2022-09-02T04:08:37;2.35;;;2.15;;
72493;SDS011;60520;49.182;-0.348;2022-09-02T04:11:05;3.58;;;2.10;;
72493;SDS011;60520;49.182;-0.348;2022-09-02T04:13:33;2.15;;;1.95;;
72493;SDS011;60520;49.182;-0.348;2022-09-02T04:16:06;2.50;;;2.20;;
72493;SDS011;60520;49.182;-0.348;2022-09-02T04:18:33;2.45;;;1.95;;
72493;SDS011;60520;49.182;-0.348;2022-09-02T04:21:00;2.35;;;2.10;;
72493;SDS011;60520;49.182;-0.348;2022-09-02T04:23:27;2.75;;;2.10;;
72493;SDS011;60520;49.182;-0.348;2022-09-02T04:25:55;2.38;;;1.92;;
72493;SDS011;60520;49.182;-0.348;2022-09-02T04:28:22;2.08;;;1.88;;
72493;SDS011;60520;49.182;-0.348;2022-09-02T04:30:49;2.00;;;1.80;;
72493;SDS011;60520;49.182;-0.348;2022-09-02T04:33:18;2.95;;;2.10;;
72493;SDS011;60520;49.182;-0.348;2022-09-02T04:35:45;2.45;;;1.80;;
72493;SDS011;60520;49.182;-0.348;2022-09-02T04:38:13;2.97;;;2.03;;
72493;SDS011;60520;49.182;-0.348;2022-09-02T04:40:42;2.50;;;2.15;;
72493;SDS011;60520;49.182;-0.348;2022-09-02T04:43:09;2.47;;;2.22;;
72493;SDS011;60520;49.182;-0.348;2022-09-02T04:45:37;3.15;;;2.10;;
72493;SDS011;60520;49.182;-0.348;2022-09-02T04:48:05;2.15;;;1.90;;
72493;SDS011;60520;49.182;-0.348;2022-09-02T04:50:33;2.30;;;2.10;;
72493;SDS011;60520;49.182;-0.348;2022-09-02T04:53:01;3.72;;;1.85;;
72493;SDS011;60520;49.182;-0.348;2022-09-02T04:55:28;2.60;;;2.15;;
72493;SDS011;60520;49.182;-0.348;2022-09-02T04:57:55;2.60;;;1.80;;
72493;SDS011;60520;49.182;-0.348;2022-09-02T05:00:22;2.13;;;1.80;;
72493;SDS011;60520;49.182;-0.348;2022-09-02T05:02:53;2.92;;;1.98;;
72493;SDS011;60520;49.182;-0.348;2022-09-02T05:05:20;3.55;;;2.03;;
72493;SDS011;60520;49.182;-0.348;2022-09-02T05:07:49;2.20;;;2.00;;
72493;SDS011;60520;49.182;-0.348;2022-09-02T05:10:16;3.00;;;2.10;;
72493;SDS011;60520;49.182;-0.348;2022-09-02T05:12:43;2.78;;;2.05;;
72493;SDS011;60520;49.182;-0.348;2022-09-02T05:15:10;2.67;;;1.90;;
72493;SDS011;60520;49.182;-0.348;2022-09-02T05:17:38;2.30;;;2.10;;
72493;SDS011;60520;49.182;-0.348;2022-09-02T05:20:06;2.13;;;1.65;;
72493;SDS011;60520;49.182;-0.348;2022-09-02T05:22:34;2.28;;;1.95;;
72493;SDS011;60520;49.182;-0.348;2022-09-02T05:25:03;2.47;;;2.00;;
72493;SDS011;60520;49.182;-0.348;2022-09-02T05:27:32;2.17;;;1.90;;
72493;SDS011;60520;49.182;-0.348;2022-09-02T05:29:59;2.45;;;1.90;;
72493;SDS011;60520;49.182;-0.348;2022-09-02T05:32:27;2.72;;;1.92;;
72493;SDS011;60520;49.182;-0.348;2022-09-02T05:34:55;2.58;;;2.00;;
72493;SDS011;60520;49.182;-0.348;2022-09-02T05:37:23;2.72;;;2.10;;
72493;SDS011;60520;49.182;-0.348;2022-09-02T05:39:50;2.60;;;1.95;;
72493;SDS011;60520;49.182;-0.348;2022-09-02T05:42:19;2.78;;;1.90;;
72493;SDS011;60520;49.182;-0.348;2022-09-02T05:44:46;1.90;;;1.70;;
72493;SDS011;60520;49.182;-0.348;2022-09-02T05:47:13;3.15;;;1.90;;
72493;SDS011;60520;49.182;-0.348;2022-09-02T05:49:40;3.03;;;1.80;;
72493;SDS011;60520;49.182;-0.348;2022-09-02T05:52:07;2.03;;;1.83;;
72493;SDS011;60520;49.182;-0.348;2022-09-02T05:54:36;2.35;;;2.00;;
72493;SDS011;60520;49.182;-0.348;2022-09-02T05:57:04;2.10;;;1.88;;
72493;SDS011;60520;49.182;-0.348;2022-09-02T05:59:35;1.73;;;1.63;;
72493;SDS011;60520;49.182;-0.348;2022-09-02T06:02:06;2.83;;;1.90;;
72493;SDS011;60520;49.182;-0.348;2022-09-02T06:04:37;2.30;;;1.70;;
72493;SDS011;60520;49.182;-0.348;2022-09-02T06:07:04;3.35;;;2.13;;
72493;SDS011;60520;49.182;-0.348;2022-09-02T06:09:32;3.67;;;1.90;;
72493;SDS011;60520;49.182;-0.348;2022-09-02T06:11:59;2.00;;;1.80;;
72493;SDS011;60520;49.182;-0.348;2022-09-02T06:14:26;2.42;;;2.03;;
72493;SDS011;60520;49.182;-0.348;2022-09-02T06:16:56;1.70;;;1.60;;
72493;SDS011;60520;49.182;-0.348;2022-09-02T06:19:24;1.90;;;1.70;;
72493;SDS011;60520;49.182;-0.348;2022-09-02T06:21:51;2.15;;;1.75;;
72493;SDS011;60520;49.182;-0.348;2022-09-02T06:24:19;4.10;;;2.00;;
72493;SDS011;60520;49.182;-0.348;2022-09-02T06:26:46;2.08;;;1.70;;
72493;SDS011;60520;49.182;-0.348;2022-09-02T06:29:13;3.13;;;2.05;;
72493;SDS011;60520;49.182;-0.348;2022-09-02T06:31:41;1.90;;;1.70;;
72493;SDS011;60520;49.182;-0.348;2022-09-02T06:34:10;2.20;;;1.60;;
72493;SDS011;60520;49.182;-0.348;2022-09-02T06:36:39;2.88;;;1.92;;
72493;SDS011;60520;49.182;-0.348;2022-09-02T06:39:08;2.15;;;1.95;;
72493;SDS011;60520;49.182;-0.348;2022-09-02T06:41:36;3.75;;;1.85;;
72493;SDS011;60520;49.182;-0.348;2022-09-02T06:44:04;2.25;;;2.00;;
72493;SDS011;60520;49.182;-0.348;2022-09-02T06:46:34;2.13;;;1.70;;
72493;SDS011;60520;49.182;-0.348;2022-09-02T06:49:02;2.42;;;1.85;;
72493;SDS011;60520;49.182;-0.348;2022-09-02T06:51:32;2.15;;;1.88;;
72493;SDS011;60520;49.182;-0.348;2022-09-02T06:54:00;2.53;;;1.98;;
72493;SDS011;60520;49.182;-0.348;2022-09-02T06:56:27;2.63;;;1.90;;
72493;SDS011;60520;49.182;-0.348;2022-09-02T06:58:54;3.97;;;2.13;;
72493;SDS011;60520;49.182;-0.348;2022-09-02T07:01:22;3.53;;;2.03;;
72493;SDS011;60520;49.182;-0.348;2022-09-02T07:03:50;3.63;;;2.20;;
72493;SDS011;60520;49.182;-0.348;2022-09-02T07:06:38;3.92;;;2.08;;
72493;SDS011;60520;49.182;-0.348;2022-09-02T07:09:06;5.53;;;2.20;;
72493;SDS011;60520;49.182;-0.348;2022-09-02T07:11:34;2.08;;;1.88;;
72493;SDS011;60520;49.182;-0.348;2022-09-02T07:14:01;3.42;;;2.40;;
72493;SDS011;60520;49.182;-0.348;2022-09-02T07:16:29;3.45;;;2.22;;
72493;SDS011;60520;49.182;-0.348;2022-09-02T07:18:57;2.60;;;2.10;;
72493;SDS011;60520;49.182;-0.348;2022-09-02T07:21:25;4.90;;;2.03;;
72493;SDS011;60520;49.182;-0.348;2022-09-02T07:23:54;2.97;;;2.00;;
72493;SDS011;60520;49.182;-0.348;2022-09-02T07:26:22;2.30;;;1.95;;
72493;SDS011;60520;49.182;-0.348;2022-09-02T07:28:49;2.65;;;2.00;;
72493;SDS011;60520;49.182;-0.348;2022-09-02T07:31:16;3.60;;;2.08;;
72493;SDS011;60520;49.182;-0.348;2022-09-02T07:33:44;2.45;;;1.88;;
72493;SDS011;60520;49.182;-0.348;2022-09-02T07:36:12;4.55;;;2.45;;
72493;SDS011;60520;49.182;-0.348;2022-09-02T07:38:40;5.15;;;2.13;;
72493;SDS011;60520;49.182;-0.348;2022-09-02T07:41:09;3.30;;;2.20;;
72493;SDS011;60520;49.182;-0.348;2022-09-02T07:43:37;3.15;;;2.13;;
72493;SDS011;60520;49.182;-0.348;2022-09-02T07:46:05;3.03;;;1.88;;
72493;SDS011;60520;49.182;-0.348;2022-09-02T07:48:33;2.72;;;2.08;;
72493;SDS011;60520;49.182;-0.348;2022-09-02T07:51:01;2.25;;;1.73;;
72493;SDS011;60520;49.182;-0.348;2022-09-02T07:53:28;3.38;;;2.00;;
72493;SDS011;60520;49.182;-0.348;2022-09-02T07:55:56;2.33;;;1.90;;
72493;SDS011;60520;49.182;-0.348;2022-09-02T07:58:25;2.90;;;1.92;;
72493;SDS011;60520;49.182;-0.348;2022-09-02T08:00:52;2.78;;;1.95;;
72493;SDS011;60520;49.182;-0.348;2022-09-02T08:03:21;2.63;;;2.40;;
72493;SDS011;60520;49.182;-0.348;2022-09-02T08:05:49;2.72;;;2.00;;
72493;SDS011;60520;49.182;-0.348;2022-09-02T08:08:16;2.75;;;2.10;;
72493;SDS011;60520;49.182;-0.348;2022-09-02T08:10:44;3.15;;;2.20;;
72493;SDS011;60520;49.182;-0.348;2022-09-02T08:13:11;6.07;;;2.15;;
72493;SDS011;60520;49.182;-0.348;2022-09-02T08:15:40;2.83;;;2.10;;
72493;SDS011;60520;49.182;-0.348;2022-09-02T08:18:07;4.50;;;2.30;;
72493;SDS011;60520;49.182;-0.348;2022-09-02T08:20:34;2.35;;;1.92;;
72493;SDS011;60520;49.182;-0.348;2022-09-02T08:23:02;4.13;;;2.40;;
72493;SDS011;60520;49.182;-0.348;2022-09-02T08:25:30;3.47;;;2.10;;
72493;SDS011;60520;49.182;-0.348;2022-09-02T08:27:57;3.03;;;2.05;;
72493;SDS011;60520;49.182;-0.348;2022-09-02T08:30:24;2.70;;;2.03;;
72493;SDS011;60520;49.182;-0.348;2022-09-02T08:32:53;4.57;;;2.38;;
72493;SDS011;60520;49.182;-0.348;2022-09-02T08:35:20;2.90;;;2.25;;
72493;SDS011;60520;49.182;-0.348;2022-09-02T08:37:47;2.35;;;1.90;;
72493;SDS011;60520;49.182;-0.348;2022-09-02T08:40:30;4.45;;;2.10;;
72493;SDS011;60520;49.182;-0.348;2022-09-02T08:42:58;3.20;;;2.30;;
72493;SDS011;60520;49.182;-0.348;2022-09-02T08:45:27;4.97;;;2.10;;
72493;SDS011;60520;49.182;-0.348;2022-09-02T08:48:00;3.63;;;2.00;;
72493;SDS011;60520;49.182;-0.348;2022-09-02T08:50:28;2.90;;;2.10;;
72493;SDS011;60520;49.182;-0.348;2022-09-02T08:52:58;2.72;;;2.00;;
72493;SDS011;60520;49.182;-0.348;2022-09-02T08:55:30;2.88;;;2.03;;
72493;SDS011;60520;49.182;-0.348;2022-09-02T08:57:58;2.78;;;2.10;;
72493;SDS011;60520;49.182;-0.348;2022-09-02T09:00:27;4.35;;;2.25;;
72493;SDS011;60520;49.182;-0.348;2022-09-02T09:02:57;2.67;;;1.85;;
72493;SDS011;60520;49.182;-0.348;2022-09-02T09:05:30;3.30;;;2.10;;
72493;SDS011;60520;49.182;-0.348;2022-09-02T09:08:02;2.72;;;2.10;;
72493;SDS011;60520;49.182;-0.348;2022-09-02T09:10:37;4.03;;;2.17;;
72493;SDS011;60520;49.182;-0.348;2022-09-02T09:13:18;4.05;;;1.90;;
72493;SDS011;60520;49.182;-0.348;2022-09-02T09:15:50;3.10;;;2.10;;
72493;SDS011;60520;49.182;-0.348;2022-09-02T09:18:22;2.95;;;2.00;;
72493;SDS011;60520;49.182;-0.348;2022-09-02T09:20:53;2.70;;;2.28;;
72493;SDS011;60520;49.182;-0.348;2022-09-02T09:23:24;4.07;;;2.10;;
72493;SDS011;60520;49.182;-0.348;2022-09-02T09:25:55;3.50;;;2.10;;
72493;SDS011;60520;49.182;-0.348;2022-09-02T09:28:22;3.38;;;2.42;;
72493;SDS011;60520;49.182;-0.348;2022-09-02T09:30:50;2.75;;;2.35;;
72493;SDS011;60520;49.182;-0.348;2022-09-02T09:33:17;2.97;;;2.20;;
72493;SDS011;60520;49.182;-0.348;2022-09-02T09:35:47;3.08;;;2.40;;
72493;SDS011;60520;49.182;-0.348;2022-09-02T09:38:15;3.60;;;2.17;;
72493;SDS011;60520;49.182;-0.348;2022-09-02T09:40:42;4.53;;;2.03;;
72493;SDS011;60520;49.182;-0.348;2022-09-02T09:43:13;3.70;;;2.53;;
72493;SDS011;60520;49.182;-0.348;2022-09-02T09:45:41;2.97;;;2.13;;
72493;SDS011;60520;49.182;-0.348;2022-09-02T09:48:12;2.42;;;1.90;;
72493;SDS011;60520;49.182;-0.348;2022-09-02T09:50:41;3.15;;;2.30;;
72493;SDS011;60520;49.182;-0.348;2022-09-02T09:53:15;3.58;;;2.45;;
72493;SDS011;60520;49.182;-0.348;2022-09-02T09:55:53;3.60;;;2.50;;
72493;SDS011;60520;49.182;-0.348;2022-09-02T09:58:22;3.30;;;2.50;;
72493;SDS011;60520;49.182;-0.348;2022-09-02T10:00:51;2.97;;;2.40;;
72493;SDS011;60520;49.182;-0.348;2022-09-02T10:03:21;3.38;;;2.50;;
72493;SDS011;60520;49.182;-0.348;2022-09-02T10:05:48;2.97;;;2.60;;
72493;SDS011;60520;49.182;-0.348;2022-09-02T10:08:19;3.95;;;2.80;;
72493;SDS011;60520;49.182;-0.348;2022-09-02T10:10:54;3.47;;;2.70;;
72493;SDS011;60520;49.182;-0.348;2022-09-02T10:13:23;2.70;;;2.45;;
72493;SDS011;60520;49.182;-0.348;2022-09-02T10:15:55;2.47;;;2.28;;
72493;SDS011;60520;49.182;-0.348;2022-09-02T10:18:25;3.90;;;2.70;;
72493;SDS011;60520;49.182;-0.348;2022-09-02T10:20:59;5.63;;;2.65;;
72493;SDS011;60520;49.182;-0.348;2022-09-02T10:23:30;4.85;;;2.45;;
72493;SDS011;60520;49.182;-0.348;2022-09-02T10:26:02;4.90;;;2.58;;
72493;SDS011;60520;49.182;-0.348;2022-09-02T10:28:38;3.80;;;2.22;;
72493;SDS011;60520;49.182;-0.348;2022-09-02T10:31:09;4.75;;;2.50;;
72493;SDS011;60520;49.182;-0.348;2022-09-02T10:33:43;5.10;;;2.17;;
72493;SDS011;60520;49.182;-0.348;2022-09-02T10:36:13;3.60;;;2.63;;
72493;SDS011;60520;49.182;-0.348;2022-09-02T10:38:43;4.15;;;2.33;;
72493;SDS011;60520;49.182;-0.348;2022-09-02T10:41:17;6.03;;;2.45;;
72493;SDS011;60520;49.182;-0.348;2022-09-02T10:43:53;2.70;;;2.22;;
72493;SDS011;60520;49.182;-0.348;2022-09-02T10:46:25;3.70;;;2.50;;
72493;SDS011;60520;49.182;-0.348;2022-09-02T10:48:56;4.78;;;2.70;;
72493;SDS011;60520;49.182;-0.348;2022-09-02T10:51:30;3.90;;;2.63;;
72493;SDS011;60520;49.182;-0.348;2022-09-02T10:54:04;3.33;;;2.70;;
72493;SDS011;60520;49.182;-0.348;2022-09-02T10:56:36;2.53;;;2.25;;
72493;SDS011;60520;49.182;-0.348;2022-09-02T10:59:09;3.03;;;2.28;;
72493;SDS011;60520;49.182;-0.348;2022-09-02T11:01:39;5.45;;;2.50;;
72493;SDS011;60520;49.182;-0.348;2022-09-02T11:04:07;3.60;;;2.65;;
72493;SDS011;60520;49.182;-0.348;2022-09-02T11:06:37;4.07;;;2.50;;
72493;SDS011;60520;49.182;-0.348;2022-09-02T11:09:06;3.03;;;2.28;;
72493;SDS011;60520;49.182;-0.348;2022-09-02T11:11:38;3.92;;;2.50;;
72493;SDS011;60520;49.182;-0.348;2022-09-02T11:14:10;4.22;;;2.30;;
72493;SDS011;60520;49.182;-0.348;2022-09-02T11:16:41;3.95;;;2.47;;
72493;SDS011;60520;49.182;-0.348;2022-09-02T11:19:12;3.15;;;2.53;;
72493;SDS011;60520;49.182;-0.348;2022-09-02T11:21:50;4.28;;;2.38;;
72493;SDS011;60520;49.182;-0.348;2022-09-02T11:24:20;3.38;;;2.45;;
72493;SDS011;60520;49.182;-0.348;2022-09-02T11:26:52;3.65;;;2.70;;
72493;SDS011;60520;49.182;-0.348;2022-09-02T11:29:25;2.95;;;2.28;;
72493;SDS011;60520;49.182;-0.348;2022-09-02T11:31:57;2.80;;;2.40;;
72493;SDS011;60520;49.182;-0.348;2022-09-02T11:34:32;2.97;;;2.15;;
72493;SDS011;60520;49.182;-0.348;2022-09-02T11:37:01;3.25;;;2.20;;
72493;SDS011;60520;49.182;-0.348;2022-09-02T11:39:30;2.95;;;2.40;;
72493;SDS011;60520;49.182;-0.348;2022-09-02T11:42:02;3.70;;;2.45;;
72493;SDS011;60520;49.182;-0.348;2022-09-02T11:44:46;2.70;;;2.35;;
72493;SDS011;60520;49.182;-0.348;2022-09-02T11:50:08;3.22;;;2.10;;
72493;SDS011;60520;49.182;-0.348;2022-09-02T11:52:41;5.13;;;2.28;;
72493;SDS011;60520;49.182;-0.348;2022-09-02T11:55:13;3.80;;;2.30;;
72493;SDS011;60520;49.182;-0.348;2022-09-02T11:57:41;2.70;;;2.25;;
72493;SDS011;60520;49.182;-0.348;2022-09-02T12:02:58;2.40;;;2.20;;
72493;SDS011;60520;49.182;-0.348;2022-09-02T12:05:42;3.28;;;2.28;;
72493;SDS011;60520;49.182;-0.348;2022-09-02T12:08:10;2.63;;;2.20;;
72493;SDS011;60520;49.182;-0.348;2022-09-02T12:10:55;3.35;;;2.50;;
72493;SDS011;60520;49.182;-0.348;2022-09-02T12:13:31;2.63;;;2.17;;
72493;SDS011;60520;49.182;-0.348;2022-09-02T12:21:36;3.47;;;2.22;;
72493;SDS011;60520;49.182;-0.348;2022-09-02T12:24:25;3.53;;;2.00;;
72493;SDS011;60520;49.182;-0.348;2022-09-02T12:27:09;5.35;;;2.08;;
72493;SDS011;60520;49.182;-0.348;2022-09-02T12:29:37;10.60;;;2.30;;
72493;SDS011;60520;49.182;-0.348;2022-09-02T12:32:04;8.25;;;2.30;;
72493;SDS011;60520;49.182;-0.348;2022-09-02T12:40:02;10.48;;;2.38;;
72493;SDS011;60520;49.182;-0.348;2022-09-02T12:42:35;11.07;;;2.53;;
72493;SDS011;60520;49.182;-0.348;2022-09-02T12:45:08;6.25;;;2.42;;
72493;SDS011;60520;49.182;-0.348;2022-09-02T12:47:45;5.57;;;2.47;;
72493;SDS011;60520;49.182;-0.348;2022-09-02T12:50:16;18.42;;;3.08;;
72493;SDS011;60520;49.182;-0.348;2022-09-02T12:52:45;82.47;;;6.10;;
72493;SDS011;60520;49.182;-0.348;2022-09-02T12:55:21;21.83;;;3.20;;
72493;SDS011;60520;49.182;-0.348;2022-09-02T12:57:49;13.25;;;3.03;;
72493;SDS011;60520;49.182;-0.348;2022-09-02T13:00:24;21.13;;;3.22;;
72493;SDS011;60520;49.182;-0.348;2022-09-02T13:02:55;9.95;;;2.97;;
72493;SDS011;60520;49.182;-0.348;2022-09-02T13:05:26;12.27;;;3.10;;
72493;SDS011;60520;49.182;-0.348;2022-09-02T13:08:06;14.05;;;3.83;;
72493;SDS011;60520;49.182;-0.348;2022-09-02T13:10:48;14.38;;;3.58;;
72493;SDS011;60520;49.182;-0.348;2022-09-02T13:13:33;15.77;;;3.53;;
72493;SDS011;60520;49.182;-0.348;2022-09-02T13:16:11;20.17;;;3.58;;
72493;SDS011;60520;49.182;-0.348;2022-09-02T13:21:31;10.40;;;2.92;;
72493;SDS011;60520;49.182;-0.348;2022-09-02T13:24:09;15.32;;;3.50;;
72493;SDS011;60520;49.182;-0.348;2022-09-02T13:26:55;9.70;;;3.10;;
72493;SDS011;60520;49.182;-0.348;2022-09-02T13:32:10;11.15;;;3.20;;
72493;SDS011;60520;49.182;-0.348;2022-09-02T13:34:39;9.65;;;3.33;;
72493;SDS011;60520;49.182;-0.348;2022-09-02T13:39:49;8.80;;;2.92;;
72493;SDS011;60520;49.182;-0.348;2022-09-02T13:42:18;9.68;;;2.92;;
72493;SDS011;60520;49.182;-0.348;2022-09-02T13:44:48;10.30;;;3.08;;
72493;SDS011;60520;49.182;-0.348;2022-09-02T13:47:15;6.32;;;2.70;;
72493;SDS011;60520;49.182;-0.348;2022-09-02T13:49:44;7.88;;;2.97;;
72493;SDS011;60520;49.182;-0.348;2022-09-02T13:52:13;12.65;;;3.17;;
72493;SDS011;60520;49.182;-0.348;2022-09-02T13:54:42;7.82;;;2.78;;
72493;SDS011;60520;49.182;-0.348;2022-09-02T13:57:10;4.57;;;2.70;;
72493;SDS011;60520;49.182;-0.348;2022-09-02T13:59:45;7.60;;;2.80;;
72493;SDS011;60520;49.182;-0.348;2022-09-02T14:02:17;7.93;;;2.58;;
72493;SDS011;60520;49.182;-0.348;2022-09-02T14:04:44;6.45;;;2.75;;
72493;SDS011;60520;49.182;-0.348;2022-09-02T14:07:11;7.78;;;2.65;;
72493;SDS011;60520;49.182;-0.348;2022-09-02T14:09:39;5.93;;;2.60;;
72493;SDS011;60520;49.182;-0.348;2022-09-02T14:12:06;6.25;;;2.65;;
72493;SDS011;60520;49.182;-0.348;2022-09-02T14:14:34;7.15;;;2.78;;
72493;SDS011;60520;49.182;-0.348;2022-09-02T14:17:19;4.97;;;2.55;;
72493;SDS011;60520;49.182;-0.348;2022-09-02T14:19:46;2.78;;;2.30;;
72493;SDS011;60520;49.182;-0.348;2022-09-02T14:22:21;7.63;;;3.28;;
72493;SDS011;60520;49.182;-0.348;2022-09-02T14:24:49;5.78;;;2.53;;
72493;SDS011;60520;49.182;-0.348;2022-09-02T14:27:17;7.07;;;2.47;;
72493;SDS011;60520;49.182;-0.348;2022-09-02T14:29:44;6.63;;;2.40;;
72493;SDS011;60520;49.182;-0.348;2022-09-02T14:32:13;3.60;;;2.35;;
72493;SDS011;60520;49.182;-0.348;2022-09-02T14:34:42;5.70;;;2.38;;
72493;SDS011;60520;49.182;-0.348;2022-09-02T14:37:13;4.82;;;2.40;;
72493;SDS011;60520;49.182;-0.348;2022-09-02T14:39:50;4.15;;;2.85;;
72493;SDS011;60520;49.182;-0.348;2022-09-02T14:42:17;4.47;;;2.70;;
72493;SDS011;60520;49.182;-0.348;2022-09-02T14:44:44;7.88;;;2.72;;
72493;SDS011;60520;49.182;-0.348;2022-09-02T14:47:12;4.50;;;2.35;;
72493;SDS011;60520;49.182;-0.348;2022-09-02T14:49:45;4.72;;;2.38;;
72493;SDS011;60520;49.182;-0.348;2022-09-02T14:52:15;5.30;;;2.35;;
72493;SDS011;60520;49.182;-0.348;2022-09-02T14:54:44;5.20;;;2.35;;
72493;SDS011;60520;49.182;-0.348;2022-09-02T14:57:19;4.28;;;2.40;;
72493;SDS011;60520;49.182;-0.348;2022-09-02T14:59:46;3.80;;;2.60;;
72493;SDS011;60520;49.182;-0.348;2022-09-02T15:02:23;7.30;;;2.47;;
72493;SDS011;60520;49.182;-0.348;2022-09-02T15:04:56;6.80;;;2.58;;
72493;SDS011;60520;49.182;-0.348;2022-09-02T15:07:24;2.85;;;2.38;;
72493;SDS011;60520;49.182;-0.348;2022-09-02T15:09:51;3.78;;;2.42;;
72493;SDS011;60520;49.182;-0.348;2022-09-02T15:12:19;7.40;;;2.63;;